»·PEaware :: N75232 KSNA-KAVX

N75232 :: KSNA-KAVX

FLIGHT INFORMATION

Flight Status: Arrived
Operator: Privately registered:
United States
More flights under this callsign
Pilot: Daniel B. (28719)
Aircraft: CESSNA 172 SKYHAWK
(C172)
More flights by this aircraft type
Origin: KSNA John Wayne-Orange Co
United States
Destination: KAVX Catalina
United States
More flights between these airports :: More routes between these airports
Route: +SLI V21 SXC
File this flight plan on PilotEdge
Remarks:
Altitude:
(Current/Filed)
4,000ft
Speed:
(Current/Filed)
115kts
Departed: 03-Aug-20 05:58 PM
Arrived: 03-Aug-20 06:35 PM
Distance/Time
Traveled:
32nm/0:36
Distance/Time
To Go:
Arrived

Flight Plot

Page will automatically refresh every two minutes.


Map Options




Map Legend


Flown Route
Filed Route
Departure Airport
Arrival Airport
Navaid (VOR, NDB)
Fix

Horizontal Profiles

Position Reports

Time Latitude Longitude Heading Altitude Ground
Speed
03-Aug-20 17:43 33.673433 -117.865976 118 60ft 0kts
03-Aug-20 17:44 33.673433 -117.865976 118 60ft 0kts
03-Aug-20 17:45 33.673433 -117.865976 118 60ft 0kts
03-Aug-20 17:46 33.673433 -117.865976 118 60ft 0kts
03-Aug-20 17:47 33.673433 -117.865976 118 60ft 0kts
03-Aug-20 17:48 33.673433 -117.865976 118 60ft 0kts
03-Aug-20 17:49 33.673433 -117.865976 118 60ft 0kts
03-Aug-20 17:50 33.673433 -117.865976 118 60ft 0kts
03-Aug-20 17:51 33.673579 -117.865887 289 60ft 7kts
03-Aug-20 17:52 33.674924 -117.865958 27 60ft 13kts
03-Aug-20 17:53 33.677747 -117.864173 27 60ft 15kts
03-Aug-20 17:54 33.679920 -117.863544 298 60ft 0kts
03-Aug-20 17:55 33.679972 -117.863655 298 60ft 0kts
03-Aug-20 17:56 33.680088 -117.863973 276 60ft 8kts
03-Aug-20 17:57 33.671008 -117.873049 235 489ft 66kts
03-Aug-20 17:58 33.659957 -117.891044 235 1333ft 72kts
03-Aug-20 17:59 33.644984 -117.909117 200 2198ft 79kts
03-Aug-20 18:00 33.615535 -117.917197 198 3302ft 81kts
03-Aug-20 18:01 33.613908 -117.940344 335 4009ft 110kts
03-Aug-20 18:02 33.632508 -117.963310 252 3998ft 109kts
03-Aug-20 18:03 33.617266 -117.993737 242 4029ft 106kts
03-Aug-20 18:04 33.601472 -118.025096 240 4013ft 111kts
03-Aug-20 18:05 33.583565 -118.055481 233 4038ft 108kts
03-Aug-20 18:06 33.564256 -118.084709 235 3998ft 112kts
03-Aug-20 18:07 33.547666 -118.116326 241 3988ft 110kts
03-Aug-20 18:08 33.530811 -118.147066 239 4006ft 110kts
03-Aug-20 18:09 33.513786 -118.177920 242 4015ft 110kts
03-Aug-20 18:10 33.496488 -118.208214 214 4002ft 115kts
03-Aug-20 18:11 33.467288 -118.223639 206 4019ft 115kts
03-Aug-20 18:12 33.437922 -118.238471 205 4039ft 115kts
03-Aug-20 18:13 33.408650 -118.253565 205 4046ft 115kts
03-Aug-20 18:14 33.377349 -118.268818 206 3545ft 121kts
03-Aug-20 18:15 33.348162 -118.283503 205 3409ft 110kts
03-Aug-20 18:16 33.331884 -118.307840 295 3458ft 108kts
03-Aug-20 18:17 33.349456 -118.338147 303 3416ft 114kts
03-Aug-20 18:18 33.361677 -118.371875 288 3408ft 111kts
03-Aug-20 18:19 33.371401 -118.406588 287 3408ft 110kts
03-Aug-20 18:20 33.396978 -118.420010 13 3396ft 122kts
03-Aug-20 18:21 33.429906 -118.410917 10 3398ft 122kts
03-Aug-20 18:22 33.463218 -118.406920 0 3398ft 120kts
03-Aug-20 18:23 33.491572 -118.417245 323 3360ft 92kts
03-Aug-20 18:24 33.508534 -118.435491 251 3482ft 85kts
03-Aug-20 18:25 33.487347 -118.423023 144 3459ft 106kts
03-Aug-20 18:26 33.462364 -118.407840 185 3420ft 101kts
03-Aug-20 18:27 33.434047 -118.410215 191 3106ft 118kts
03-Aug-20 18:28 33.403603 -118.416041 198 2691ft 112kts
03-Aug-20 18:29 33.378253 -118.423334 204 2310ft 79kts
03-Aug-20 18:30 33.358558 -118.430117 170 2054ft 88kts
03-Aug-20 18:31 33.363913 -118.426954 307 2082ft 95kts
03-Aug-20 18:32 33.387154 -118.422726 43 2235ft 102kts
03-Aug-20 18:33 33.405666 -118.401645 331 2158ft 67kts
03-Aug-20 18:34 33.405078 -118.415189 152 1543ft 11kts
03-Aug-20 18:35 33.404876 -118.415123 171 1543ft 0kts
03-Aug-20 18:36 33.403790 -118.415083 152 1545ft 0kts

Navigation Log

Ident Type
Flight plan parsing failed, navigation log unavailable